createdAt,value
2022-11-01T00:02:02.466Z,5.53
2022-11-01T00:04:29.991Z,5.20
2022-11-01T00:06:57.479Z,5.55
2022-11-01T00:09:24.943Z,5.70
2022-11-01T00:11:52.464Z,4.88
2022-11-01T00:14:21.102Z,4.97
2022-11-01T00:16:49.220Z,4.80
2022-11-01T00:19:17.021Z,4.90
2022-11-01T00:21:44.556Z,4.97
2022-11-01T00:24:12.348Z,6.50
2022-11-01T00:26:40.121Z,5.32
2022-11-01T00:29:07.705Z,5.82
2022-11-01T00:31:35.449Z,5.78
2022-11-01T00:34:05.703Z,4.72
2022-11-01T00:36:35.012Z,4.70
2022-11-01T00:39:03.948Z,5.70
2022-11-01T00:41:31.585Z,5.10
2022-11-01T00:43:59.174Z,5.60
2022-11-01T00:46:26.796Z,5.35
2022-11-01T00:48:54.227Z,4.68
2022-11-01T00:51:21.676Z,5.00
2022-11-01T00:53:49.571Z,5.10
2022-11-01T00:56:17.230Z,7.15
2022-11-01T00:58:44.728Z,6.18
2022-11-01T01:01:12.335Z,6.20
2022-11-01T01:03:40.125Z,6.20
2022-11-01T01:06:07.619Z,6.85
2022-11-01T01:08:35.111Z,7.18
2022-11-01T01:11:02.587Z,5.03
2022-11-01T01:13:30.100Z,5.18
2022-11-01T01:15:57.539Z,6.60
2022-11-01T01:18:25.081Z,5.53
2022-11-01T01:21:00.651Z,6.18
2022-11-01T01:23:28.160Z,6.53
2022-11-01T01:25:55.700Z,6.07
2022-11-01T01:28:23.187Z,5.40
2022-11-01T01:30:50.684Z,8.13
2022-11-01T01:33:18.197Z,7.00
2022-11-01T01:35:45.600Z,8.45
2022-11-01T01:38:13.055Z,5.95
2022-11-01T01:40:40.614Z,5.63
2022-11-01T01:43:12.707Z,5.57
2022-11-01T01:45:41.403Z,5.78
2022-11-01T01:48:18.373Z,4.97
2022-11-01T01:50:54.315Z,6.00
2022-11-01T01:53:28.195Z,6.82
2022-11-01T01:56:03.526Z,5.68
2022-11-01T01:58:56.225Z,5.05
2022-11-01T02:01:24.384Z,5.05
2022-11-01T02:03:52.279Z,6.65
2022-11-01T02:09:01.636Z,4.97
2022-11-01T02:11:29.257Z,4.43
2022-11-01T02:13:58.557Z,4.55
2022-11-01T02:16:38.652Z,4.50
2022-11-01T02:19:43.377Z,4.43
2022-11-01T02:22:13.649Z,3.65
2022-11-01T02:25:04.427Z,4.18
2022-11-01T02:27:44.529Z,4.32
2022-11-01T02:30:20.385Z,5.43
2022-11-01T02:33:05.976Z,5.20
2022-11-01T02:35:56.147Z,4.53
2022-11-01T02:38:44.818Z,3.40
2022-11-01T02:41:18.643Z,3.38
2022-11-01T02:44:10.180Z,4.50
2022-11-01T02:46:59.205Z,3.65
2022-11-01T02:49:31.507Z,2.60
2022-11-01T02:52:01.495Z,2.78
2022-11-01T02:54:44.948Z,3.80
2022-11-01T02:57:34.529Z,4.15
2022-11-01T03:00:24.662Z,5.30
2022-11-01T03:03:00.567Z,4.57
2022-11-01T03:05:39.770Z,3.67
2022-11-01T03:08:10.360Z,5.07
2022-11-01T03:11:02.823Z,5.40
2022-11-01T03:13:54.049Z,4.85
2022-11-01T03:16:27.476Z,4.43
2022-11-01T03:19:21.496Z,4.90
2022-11-01T03:22:03.169Z,4.40
2022-11-01T03:24:49.317Z,4.40
2022-11-01T03:27:37.380Z,4.93
2022-11-01T03:30:11.018Z,4.93
2022-11-01T03:32:50.558Z,3.95
2022-11-01T03:35:22.648Z,4.38
2022-11-01T03:37:54.832Z,4.03
2022-11-01T03:40:25.447Z,3.63
2022-11-01T03:42:57.859Z,4.20
2022-11-01T03:45:27.134Z,3.33
2022-11-01T03:47:54.677Z,5.00
2022-11-01T03:50:25.325Z,6.13
2022-11-01T03:52:53.132Z,4.97
2022-11-01T03:55:22.154Z,4.43
2022-11-01T03:57:57.504Z,5.15
2022-11-01T04:00:32.356Z,4.25
2022-11-01T04:03:00.653Z,6.47
2022-11-01T04:05:30.711Z,5.40
2022-11-01T04:07:58.222Z,4.50
2022-11-01T04:10:26.693Z,3.35
2022-11-01T04:12:54.203Z,4.07
2022-11-01T04:15:42.187Z,4.00
2022-11-01T04:18:42.116Z,4.18
2022-11-01T04:21:19.189Z,4.38
2022-11-01T04:23:47.396Z,4.72
2022-11-01T04:26:17.130Z,5.05
2022-11-01T04:28:56.863Z,5.05
2022-11-01T04:31:36.867Z,3.92
2022-11-01T04:34:05.765Z,4.00
2022-11-01T04:36:33.370Z,4.68
2022-11-01T04:39:00.931Z,4.97
2022-11-01T04:41:29.671Z,4.03
2022-11-01T04:43:58.947Z,3.53
2022-11-01T04:46:29.697Z,5.53
2022-11-01T04:48:57.251Z,4.32
2022-11-01T04:51:24.769Z,4.80
2022-11-01T04:53:53.098Z,4.82
2022-11-01T04:56:20.521Z,4.25
2022-11-01T04:58:48.100Z,3.28
2022-11-01T05:01:15.822Z,4.60
2022-11-01T05:03:43.754Z,3.95
2022-11-01T05:06:11.299Z,4.15
2022-11-01T05:08:38.778Z,3.03
2022-11-01T05:11:06.485Z,3.38
2022-11-01T05:13:33.956Z,3.72
2022-11-01T05:16:21.128Z,3.42
2022-11-01T05:18:49.465Z,3.03
2022-11-01T05:21:16.993Z,2.80
2022-11-01T05:23:44.594Z,4.15
2022-11-01T05:26:12.043Z,3.63
2022-11-01T05:28:39.587Z,2.25
2022-11-01T05:31:07.183Z,3.03
2022-11-01T05:33:34.659Z,2.55
2022-11-01T05:36:02.260Z,3.42
2022-11-01T05:38:29.826Z,3.05
2022-11-01T05:40:57.314Z,2.50
2022-11-01T05:43:24.924Z,3.03
2022-11-01T05:45:52.331Z,3.92
2022-11-01T05:48:19.947Z,4.57
2022-11-01T05:50:47.442Z,3.20
2022-11-01T05:53:15.008Z,5.25
2022-11-01T05:55:42.522Z,4.00
2022-11-01T05:58:10.111Z,9.43
2022-11-01T06:00:37.576Z,7.82
2022-11-01T06:03:05.928Z,6.65
2022-11-01T06:05:34.135Z,8.95
2022-11-01T06:08:02.243Z,7.95
2022-11-01T06:10:30.578Z,7.78
2022-11-01T06:12:58.437Z,8.50
2022-11-01T06:15:26.130Z,7.68
2022-11-01T06:18:00.088Z,7.18
2022-11-01T06:20:29.696Z,8.85
2022-11-01T06:22:58.243Z,8.82
2022-11-01T06:25:27.260Z,7.53
2022-11-01T06:27:54.770Z,6.72
2022-11-01T06:30:22.428Z,6.50
2022-11-01T06:32:49.984Z,6.10
2022-11-01T06:35:17.603Z,5.53
2022-11-01T06:37:45.096Z,3.90
2022-11-01T06:40:13.133Z,3.17
2022-11-01T06:42:46.602Z,2.03
2022-11-01T06:45:14.802Z,7.13
2022-11-01T06:47:47.017Z,2.10
2022-11-01T06:50:14.582Z,1.38
2022-11-01T06:52:42.048Z,1.17
2022-11-01T06:55:09.691Z,0.88
2022-11-01T06:57:37.408Z,0.80
2022-11-01T07:00:05.556Z,0.90
2022-11-01T07:02:33.210Z,0.50
2022-11-01T07:05:00.855Z,0.77
2022-11-01T07:07:28.380Z,0.80
2022-11-01T07:09:55.826Z,0.68
2022-11-01T07:12:23.212Z,0.93
2022-11-01T07:16:11.019Z,1.05
2022-11-01T07:18:38.591Z,1.10
2022-11-01T07:21:06.290Z,0.68
2022-11-01T07:23:34.052Z,0.80
2022-11-01T07:26:01.598Z,1.10
2022-11-01T07:28:29.189Z,1.02
2022-11-01T07:30:57.306Z,1.20
2022-11-01T07:33:25.007Z,0.88
2022-11-01T07:35:52.777Z,1.10
2022-11-01T07:38:20.388Z,1.35
2022-11-01T07:40:49.795Z,0.75
2022-11-01T07:43:17.860Z,1.00
2022-11-01T07:45:45.315Z,1.10
2022-11-01T07:48:15.042Z,3.40
2022-11-01T07:50:43.863Z,1.10
2022-11-01T07:53:17.260Z,1.30
2022-11-01T07:55:45.948Z,1.40
2022-11-01T07:58:14.944Z,1.42
2022-11-01T08:00:43.890Z,1.15
2022-11-01T08:03:16.109Z,10.02
2022-11-01T08:05:44.799Z,2.13
2022-11-01T08:08:12.853Z,1.95
2022-11-01T08:10:40.934Z,1.30
2022-11-01T08:13:22.929Z,1.35
2022-11-01T08:15:52.280Z,1.60
2022-11-01T08:18:27.330Z,1.10
2022-11-01T08:20:54.923Z,0.90
2022-11-01T08:23:22.493Z,0.98
2022-11-01T08:25:50.135Z,0.90
2022-11-01T08:28:19.292Z,0.90
2022-11-01T08:30:48.616Z,0.80
2022-11-01T08:33:16.168Z,0.80
2022-11-01T08:35:49.855Z,0.95
2022-11-01T08:38:18.860Z,0.98
2022-11-01T08:40:46.408Z,0.90
2022-11-01T08:43:14.023Z,0.90
2022-11-01T08:45:41.534Z,0.70
2022-11-01T08:48:10.165Z,1.00
2022-11-01T08:50:38.642Z,0.90
2022-11-01T08:53:11.120Z,0.93
2022-11-01T08:55:39.180Z,0.90
2022-11-01T08:58:08.013Z,1.08
2022-11-01T09:00:36.312Z,0.90
2022-11-01T09:03:04.124Z,0.95
2022-11-01T09:05:31.786Z,0.80
2022-11-01T09:08:01.401Z,0.90
2022-11-01T09:10:31.118Z,0.82
2022-11-01T09:13:00.470Z,0.77
2022-11-01T09:15:28.490Z,0.68
2022-11-01T09:17:55.936Z,0.80
2022-11-01T09:20:24.216Z,0.88
2022-11-01T09:22:52.602Z,0.85
2022-11-01T09:25:20.267Z,0.60
2022-11-01T09:27:47.746Z,1.08
2022-11-01T09:30:15.262Z,1.17
2022-11-01T09:32:42.703Z,1.25
2022-11-01T09:35:10.230Z,0.98
2022-11-01T09:37:37.620Z,0.70
2022-11-01T09:40:05.704Z,0.80
2022-11-01T09:42:37.118Z,0.68
2022-11-01T09:45:18.896Z,0.90
2022-11-01T09:47:51.134Z,0.90
2022-11-01T09:50:26.256Z,1.05
2022-11-01T09:52:55.540Z,1.00
2022-11-01T09:55:56.815Z,0.80
2022-11-01T09:58:34.101Z,0.70
2022-11-01T10:01:15.859Z,0.68
2022-11-01T10:04:01.413Z,0.82
2022-11-01T10:06:36.249Z,0.88
2022-11-01T10:09:11.703Z,0.70
2022-11-01T10:12:23.284Z,0.80
2022-11-01T10:15:05.278Z,0.70
2022-11-01T10:17:47.075Z,0.70
2022-11-01T10:20:21.546Z,0.63
2022-11-01T10:22:50.947Z,0.52
2022-11-01T10:25:39.047Z,0.80
2022-11-01T10:28:26.174Z,0.63
2022-11-01T10:31:02.781Z,0.43
2022-11-01T10:33:41.075Z,0.60
2022-11-01T10:36:32.505Z,0.70
2022-11-01T10:42:17.143Z,0.50
2022-11-01T10:44:54.582Z,0.40
2022-11-01T10:47:24.096Z,0.60
2022-11-01T10:50:05.923Z,0.65
2022-11-01T10:52:59.757Z,0.57
2022-11-01T10:55:59.704Z,0.57
2022-11-01T10:58:46.802Z,0.60
2022-11-01T11:01:20.469Z,0.63
2022-11-01T11:03:50.010Z,0.60
2022-11-01T11:06:19.168Z,0.50
2022-11-01T11:08:51.685Z,0.50
2022-11-01T11:11:31.010Z,0.50
2022-11-01T11:14:02.366Z,0.50
2022-11-01T11:16:36.473Z,0.40
2022-11-01T11:19:24.454Z,0.55
2022-11-01T11:21:53.935Z,0.30
2022-11-01T11:24:43.841Z,0.77
2022-11-01T11:27:18.919Z,1.02
2022-11-01T11:29:51.054Z,0.80
2022-11-01T11:32:33.491Z,0.57
2022-11-01T11:35:16.412Z,1.10
2022-11-01T11:37:58.929Z,0.85
2022-11-01T11:40:40.725Z,0.88
2022-11-01T11:43:22.797Z,0.70
2022-11-01T11:46:11.872Z,0.80
2022-11-01T11:48:52.418Z,0.70
2022-11-01T11:51:21.785Z,0.40
2022-11-01T11:54:13.980Z,0.50
2022-11-01T11:56:41.549Z,0.65
2022-11-01T11:59:29.198Z,0.45
2022-11-01T12:02:02.385Z,0.50
2022-11-01T12:04:45.756Z,0.63
2022-11-01T12:07:34.927Z,0.50
2022-11-01T12:10:05.613Z,0.38
2022-11-01T12:12:35.575Z,0.47
2022-11-01T12:15:03.997Z,0.40
2022-11-01T12:17:35.429Z,0.38
2022-11-01T12:20:09.756Z,0.50
2022-11-01T12:22:40.538Z,0.32
2022-11-01T12:25:16.151Z,0.75
2022-11-01T12:27:52.443Z,0.40
2022-11-01T12:30:23.546Z,0.38
2022-11-01T12:32:57.014Z,0.57
2022-11-01T12:35:32.408Z,0.47
2022-11-01T12:38:21.680Z,0.35
2022-11-01T12:40:52.491Z,0.45
2022-11-01T12:43:27.870Z,0.55
2022-11-01T12:46:21.071Z,0.45
2022-11-01T12:48:58.047Z,0.43
2022-11-01T12:51:44.605Z,0.30
2022-11-01T12:56:44.948Z,0.70
2022-11-01T12:59:15.821Z,0.52
2022-11-01T13:01:51.452Z,0.50
2022-11-01T13:04:31.868Z,0.47
2022-11-01T13:07:11.474Z,0.50
2022-11-01T13:09:49.063Z,0.60
2022-11-01T13:12:54.725Z,0.75
2022-11-01T13:15:54.033Z,0.68
2022-11-01T13:18:46.425Z,0.50
2022-11-01T13:21:43.314Z,0.55
2022-11-01T13:24:32.534Z,0.60
2022-11-01T13:27:12.324Z,0.50
2022-11-01T13:30:02.177Z,0.50
2022-11-01T13:32:46.062Z,0.50
2022-11-01T13:35:55.530Z,0.60
2022-11-01T13:38:26.749Z,0.75
2022-11-01T13:41:25.687Z,0.70
2022-11-01T13:43:58.468Z,0.73
2022-11-01T13:46:41.764Z,0.60
2022-11-01T13:49:09.225Z,0.88
2022-11-01T13:51:49.371Z,0.90
2022-11-01T13:54:40.622Z,0.60
2022-11-01T13:57:09.325Z,1.30
2022-11-01T13:59:36.786Z,0.70
2022-11-01T14:02:22.974Z,0.93
2022-11-01T14:04:56.729Z,0.80
2022-11-01T14:07:25.039Z,1.00
2022-11-01T14:09:54.031Z,0.90
2022-11-01T14:12:44.740Z,1.02
2022-11-01T14:15:25.534Z,1.10
2022-11-01T14:17:53.151Z,1.48
2022-11-01T14:20:20.577Z,1.10
2022-11-01T14:22:48.159Z,1.15
2022-11-01T14:25:15.648Z,0.88
2022-11-01T14:28:07.448Z,1.17
2022-11-01T14:30:38.504Z,1.13
2022-11-01T14:33:06.443Z,1.40
2022-11-01T14:35:37.288Z,1.10
2022-11-01T14:38:14.656Z,1.27
2022-11-01T14:40:55.933Z,1.10
2022-11-01T14:43:25.606Z,1.17
2022-11-01T14:46:06.395Z,1.58
2022-11-01T14:48:52.692Z,1.65
2022-11-01T14:51:30.442Z,1.70
2022-11-01T14:54:02.527Z,1.10
2022-11-01T14:56:40.720Z,1.40
2022-11-01T14:59:21.858Z,1.40
2022-11-01T15:02:02.043Z,1.55
2022-11-01T15:04:33.135Z,1.35
2022-11-01T15:07:01.133Z,1.63
2022-11-01T15:09:31.044Z,0.95
2022-11-01T15:12:10.791Z,1.17
2022-11-01T15:14:42.829Z,1.30
2022-11-01T15:18:03.008Z,1.30
2022-11-01T15:20:40.800Z,1.25
2022-11-01T15:23:17.835Z,1.20
2022-11-01T15:25:52.853Z,1.10
2022-11-01T15:28:27.236Z,0.88
2022-11-01T15:31:01.196Z,1.20
2022-11-01T15:33:32.599Z,0.93
2022-11-01T15:36:02.876Z,0.88
2022-11-01T15:38:34.672Z,1.30
2022-11-01T15:41:25.757Z,1.00
2022-11-01T15:43:55.094Z,0.73
2022-11-01T15:46:25.947Z,1.60
2022-11-01T15:48:56.745Z,1.60
2022-11-01T15:51:27.767Z,1.10
2022-11-01T15:54:05.286Z,1.10
2022-11-01T15:56:54.804Z,1.00
2022-11-01T15:59:31.492Z,0.70
2022-11-01T16:02:02.486Z,1.00
2022-11-01T16:04:39.738Z,1.00
2022-11-01T16:07:10.205Z,0.88
2022-11-01T16:09:48.148Z,1.02
2022-11-01T16:12:22.523Z,1.00
2022-11-01T16:15:00.365Z,0.80
2022-11-01T16:17:31.577Z,0.85
2022-11-01T16:19:59.798Z,0.90
2022-11-01T16:22:42.325Z,0.60
2022-11-01T16:25:12.669Z,1.00
2022-11-01T16:27:54.753Z,0.90
2022-11-01T16:30:49.261Z,1.05
2022-11-01T16:33:49.504Z,0.93
2022-11-01T16:36:20.007Z,0.80
2022-11-01T16:38:48.690Z,0.80
2022-11-01T16:41:24.121Z,1.00
2022-11-01T16:44:00.133Z,0.95
2022-11-01T16:49:00.717Z,0.75
2022-11-01T16:51:30.379Z,1.00
2022-11-01T16:54:00.434Z,0.75
2022-11-01T16:56:36.486Z,1.00
2022-11-01T16:59:37.837Z,1.23
2022-11-01T17:02:27.221Z,0.82
2022-11-01T17:04:58.754Z,1.20
2022-11-01T17:07:26.275Z,1.00
2022-11-01T17:09:53.870Z,1.50
2022-11-01T17:12:21.393Z,1.63
2022-11-01T17:14:48.902Z,1.45
2022-11-01T17:17:19.762Z,1.50
2022-11-01T17:19:52.624Z,2.13
2022-11-01T17:22:23.292Z,1.40
2022-11-01T17:24:50.862Z,1.80
2022-11-01T17:27:19.143Z,1.67
2022-11-01T17:29:46.814Z,1.77
2022-11-01T17:32:14.407Z,1.58
2022-11-01T17:34:41.871Z,1.45
2022-11-01T17:37:14.750Z,1.48
2022-11-01T17:39:42.615Z,1.58
2022-11-01T17:42:10.892Z,1.92
2022-11-01T17:44:38.457Z,2.47
2022-11-01T17:47:06.005Z,2.00
2022-11-01T17:49:33.434Z,1.60
2022-11-01T17:52:01.179Z,2.72
2022-11-01T17:54:28.596Z,3.05
2022-11-01T17:56:56.094Z,2.47
2022-11-01T17:59:23.664Z,3.35
2022-11-01T18:01:51.257Z,3.70
2022-11-01T18:04:18.783Z,3.45
2022-11-01T18:06:46.424Z,3.00
2022-11-01T18:09:26.109Z,2.63
2022-11-01T18:12:12.797Z,3.15
2022-11-01T18:14:46.466Z,2.30
2022-11-01T18:17:20.178Z,2.10
2022-11-01T18:19:50.662Z,2.20
2022-11-01T18:22:41.227Z,2.25
2022-11-01T18:25:39.444Z,2.25
2022-11-01T18:28:19.149Z,2.42
2022-11-01T18:30:57.051Z,2.67
2022-11-01T18:33:50.447Z,2.67
2022-11-01T18:36:29.808Z,1.90
2022-11-01T18:39:10.237Z,2.35
2022-11-01T18:41:37.785Z,3.63
2022-11-01T18:44:11.275Z,2.22
2022-11-01T18:46:52.998Z,2.08
2022-11-01T18:49:22.879Z,2.80
2022-11-01T18:51:50.476Z,2.35
2022-11-01T18:54:23.928Z,3.08
2022-11-01T18:56:54.981Z,2.33
2022-11-01T18:59:28.060Z,2.05
2022-11-01T19:02:21.217Z,2.75
2022-11-01T19:04:51.697Z,2.28
2022-11-01T19:07:39.465Z,2.38
2022-11-01T19:10:22.168Z,2.28
2022-11-01T19:12:56.281Z,2.30
2022-11-01T19:15:28.943Z,2.80
2022-11-01T19:18:05.673Z,2.65
2022-11-01T19:20:46.543Z,3.15
2022-11-01T19:23:19.528Z,2.88
2022-11-01T19:25:49.500Z,2.25
2022-11-01T19:28:40.600Z,3.85
2022-11-01T19:31:20.869Z,3.40
2022-11-01T19:33:50.519Z,3.20
2022-11-01T19:36:20.325Z,2.83
2022-11-01T19:38:49.065Z,2.53
2022-11-01T19:41:25.282Z,3.25
2022-11-01T19:43:54.831Z,2.60
2022-11-01T19:46:22.691Z,2.63
2022-11-01T19:48:51.903Z,3.17
2022-11-01T19:51:22.937Z,2.80
2022-11-01T19:53:51.655Z,3.75
2022-11-01T19:56:24.365Z,3.40
2022-11-01T19:58:55.297Z,3.63
2022-11-01T20:01:42.825Z,3.55
2022-11-01T20:04:28.164Z,3.70
2022-11-01T20:07:09.519Z,3.95
2022-11-01T20:09:38.843Z,2.88
2022-11-01T20:12:06.757Z,2.70
2022-11-01T20:14:35.437Z,2.60
2022-11-01T20:17:03.102Z,2.47
2022-11-01T20:19:31.482Z,2.92
2022-11-01T20:21:59.452Z,2.80
2022-11-01T20:24:30.936Z,2.13
2022-11-01T20:27:00.760Z,2.20
2022-11-01T20:29:28.281Z,2.53
2022-11-01T20:31:56.275Z,2.30
2022-11-01T20:34:25.664Z,2.75
2022-11-01T20:37:15.071Z,2.45
2022-11-01T20:39:40.672Z,2.50
2022-11-01T20:42:08.117Z,2.10
2022-11-01T20:44:35.656Z,2.30
2022-11-01T20:47:03.190Z,2.25
2022-11-01T20:49:30.807Z,2.10
2022-11-01T20:52:13.388Z,2.08
2022-11-01T20:54:46.202Z,2.00
2022-11-01T20:57:27.202Z,1.85
2022-11-01T20:59:56.528Z,2.20
2022-11-01T21:02:24.291Z,2.50
2022-11-01T21:05:00.364Z,3.08
2022-11-01T21:09:58.700Z,1.92
2022-11-01T21:12:42.119Z,2.80
2022-11-01T21:15:44.264Z,2.08
2022-11-01T21:18:11.863Z,2.50
2022-11-01T21:20:40.139Z,2.40
2022-11-01T21:23:16.975Z,2.70
2022-11-01T21:25:45.568Z,2.55
2022-11-01T21:28:28.985Z,2.58
2022-11-01T21:31:10.927Z,2.38
2022-11-01T21:33:40.157Z,2.25
2022-11-01T21:36:19.401Z,2.30
2022-11-01T21:38:56.037Z,2.38
2022-11-01T21:41:35.253Z,2.60
2022-11-01T21:44:32.677Z,2.88
2022-11-01T21:47:09.319Z,2.65
2022-11-01T21:49:37.030Z,2.30
2022-11-01T21:52:06.718Z,3.47
2022-11-01T21:54:36.063Z,4.00
2022-11-01T21:57:05.388Z,3.70
2022-11-01T21:59:34.541Z,3.03
2022-11-01T22:02:03.157Z,2.50
2022-11-01T22:04:31.375Z,2.53
2022-11-01T22:07:00.572Z,2.30
2022-11-01T22:09:29.055Z,2.50
2022-11-01T22:11:56.884Z,2.67
2022-11-01T22:14:24.499Z,2.97
2022-11-01T22:16:52.194Z,2.40
2022-11-01T22:19:19.698Z,2.10
2022-11-01T22:21:47.159Z,2.00
2022-11-01T22:24:14.776Z,2.00
2022-11-01T22:26:42.230Z,2.25
2022-11-01T22:29:09.829Z,2.55
2022-11-01T22:31:37.296Z,1.73
2022-11-01T22:34:04.751Z,1.95
2022-11-01T22:36:35.846Z,2.45
2022-11-01T22:39:15.383Z,2.45
2022-11-01T22:41:43.197Z,2.17
2022-11-01T22:44:16.956Z,2.10
2022-11-01T22:46:57.907Z,2.08
2022-11-01T22:49:35.314Z,2.20
2022-11-01T22:52:24.229Z,2.40
2022-11-01T22:54:56.545Z,2.22
2022-11-01T22:57:31.277Z,1.80
2022-11-01T23:00:11.705Z,2.00
2022-11-01T23:02:39.556Z,2.13
2022-11-01T23:05:07.028Z,2.20
2022-11-01T23:07:47.948Z,2.15
2022-11-01T23:10:32.954Z,2.60
2022-11-01T23:13:30.833Z,1.70
2022-11-01T23:16:01.549Z,2.40
2022-11-01T23:18:32.015Z,2.15
2022-11-01T23:21:06.777Z,1.75
2022-11-01T23:23:41.744Z,1.63
2022-11-01T23:26:10.252Z,1.58
2022-11-01T23:28:42.237Z,1.98
2022-11-01T23:31:09.852Z,1.83
2022-11-01T23:33:45.827Z,2.47
2022-11-01T23:39:00.439Z,2.72
2022-11-01T23:41:41.516Z,1.65
2022-11-01T23:44:37.892Z,2.13
2022-11-01T23:47:26.793Z,1.65
2022-11-01T23:50:43.588Z,1.45
2022-11-01T23:53:13.697Z,1.60
2022-11-01T23:56:08.090Z,1.63
2022-11-01T23:58:37.386Z,2.30
